Terminal Aerodrome Forecast
Issued by NWS Cleveland, OH

Home | Current Version | Previous Version | Text Only | Print | Product List | Glossary Off
Versions: 1 2 3 4 5 6 7 8 9 10 11 12 13 14 15 16 17 18

000
FTUS41 KCLE 170500
TAFERI
TAF
KERI 170540Z 1706/1806 20008KT P6SM VCSH OVC017
     FM171000 22005KT 5SM -SHRA BR OVC008
     FM171400 27007KT P6SM VCSH SCT008 OVC012
     FM171900 26008KT P6SM SCT020
     FM180100 22004KT P6SM SKC=

USA.gov is the U.S. government's official web portal to all federal, state and local government web resources and services.